createdAt,value
2022-08-16T00:01:33.669Z,16.60
2022-08-16T00:04:00.524Z,18.80
2022-08-16T00:06:27.449Z,14.27
2022-08-16T00:08:53.878Z,19.02
2022-08-16T00:11:21.263Z,22.08
2022-08-16T00:13:53.757Z,15.38
2022-08-16T00:17:00.777Z,19.73
2022-08-16T00:19:07.425Z,12.30
2022-08-16T00:21:34.385Z,19.10
2022-08-16T00:24:04.514Z,9.50
2022-08-16T00:26:36.488Z,8.05
2022-08-16T00:29:11.685Z,13.77
2022-08-16T00:31:47.046Z,17.90
2022-08-16T00:34:43.570Z,13.38
2022-08-16T00:37:10.841Z,24.00
2022-08-16T00:39:37.506Z,17.42
2022-08-16T00:42:05.541Z,18.95
2022-08-16T00:44:37.243Z,21.08
2022-08-16T00:47:06.741Z,17.73
2022-08-16T00:49:39.330Z,16.92
2022-08-16T00:52:29.554Z,14.27
2022-08-16T00:54:59.052Z,14.55
2022-08-16T00:57:26.171Z,14.27
2022-08-16T00:59:57.446Z,8.45
2022-08-16T01:02:31.439Z,18.67
2022-08-16T01:05:10.511Z,19.55
2022-08-16T01:07:51.986Z,12.35
2022-08-16T01:10:32.344Z,16.58
2022-08-16T01:13:05.373Z,15.13
2022-08-16T01:15:32.840Z,11.07
2022-08-16T01:17:59.874Z,18.08
2022-08-16T01:20:30.131Z,17.55
2022-08-16T01:23:17.172Z,18.83
2022-08-16T01:25:45.744Z,19.40
2022-08-16T01:28:30.894Z,17.67
2022-08-16T01:30:59.138Z,14.68
2022-08-16T01:33:25.629Z,17.75
2022-08-16T01:36:09.450Z,17.23
2022-08-16T01:38:53.233Z,9.70
2022-08-16T01:41:24.649Z,18.67
2022-08-16T01:43:54.238Z,17.67
2022-08-16T01:46:37.052Z,16.70
2022-08-16T01:49:22.359Z,16.42
2022-08-16T01:51:57.336Z,17.52
2022-08-16T01:54:30.492Z,17.67
2022-08-16T01:56:57.915Z,12.55
2022-08-16T01:59:24.795Z,11.30
2022-08-16T02:01:59.695Z,9.77
2022-08-16T02:04:49.319Z,10.90
2022-08-16T02:07:15.727Z,10.07
2022-08-16T02:09:43.241Z,13.98
2022-08-16T02:12:50.188Z,16.58
2022-08-16T02:15:10.595Z,13.65
2022-08-16T02:17:37.415Z,8.00
2022-08-16T02:20:11.649Z,13.15
2022-08-16T02:22:38.928Z,11.75
2022-08-16T02:25:08.315Z,15.57
2022-08-16T02:27:36.530Z,10.02
2022-08-16T02:30:05.558Z,5.65
2022-08-16T02:32:50.997Z,11.10
2022-08-16T02:35:18.923Z,15.27
2022-08-16T02:37:52.510Z,17.20
2022-08-16T02:40:20.104Z,15.23
2022-08-16T02:42:48.035Z,17.02
2022-08-16T02:45:17.057Z,19.38
2022-08-16T02:48:00.157Z,17.00
2022-08-16T02:51:03.121Z,12.50
2022-08-16T02:53:15.262Z,14.35
2022-08-16T02:55:45.297Z,15.57
2022-08-16T02:58:16.928Z,17.10
2022-08-16T03:00:50.364Z,15.98
2022-08-16T03:03:17.958Z,21.38
2022-08-16T03:05:44.880Z,13.75
2022-08-16T03:08:50.873Z,15.40
2022-08-16T03:11:03.630Z,13.13
2022-08-16T03:13:30.790Z,15.80
2022-08-16T03:16:06.593Z,18.17
2022-08-16T03:18:53.563Z,16.50
2022-08-16T03:21:19.934Z,12.35
2022-08-16T03:23:50.066Z,12.77
2022-08-16T03:26:18.000Z,18.52
2022-08-16T03:28:44.484Z,10.43
2022-08-16T03:31:15.004Z,7.35
2022-08-16T03:33:41.565Z,9.10
2022-08-16T03:36:30.841Z,11.45
2022-08-16T03:38:56.179Z,11.55
2022-08-16T03:41:24.472Z,15.60
2022-08-16T03:43:54.469Z,13.52
2022-08-16T03:46:48.269Z,15.23
2022-08-16T03:49:10.712Z,14.15
2022-08-16T03:51:40.018Z,14.73
2022-08-16T03:54:12.447Z,14.68
2022-08-16T03:56:39.427Z,14.10
2022-08-16T03:59:23.841Z,16.70
2022-08-16T04:01:50.206Z,18.15
2022-08-16T04:04:32.416Z,13.70
2022-08-16T04:07:00.072Z,22.17
2022-08-16T04:09:26.483Z,19.17
2022-08-16T04:11:52.859Z,15.73
2022-08-16T04:14:32.306Z,20.60
2022-08-16T04:17:00.916Z,16.00
2022-08-16T04:19:31.745Z,18.35
2022-08-16T04:21:58.452Z,19.25
2022-08-16T04:24:28.801Z,21.33
2022-08-16T04:26:55.512Z,17.65
2022-08-16T04:29:24.975Z,17.55
2022-08-16T04:31:55.848Z,19.20
2022-08-16T04:34:26.393Z,19.83
2022-08-16T04:36:52.938Z,18.50
2022-08-16T04:39:19.958Z,20.42
2022-08-16T04:41:56.846Z,23.33
2022-08-16T04:44:52.403Z,20.70
2022-08-16T04:47:21.595Z,19.75
2022-08-16T04:49:50.922Z,15.27
2022-08-16T04:52:34.237Z,18.40
2022-08-16T04:55:06.498Z,18.00
2022-08-16T04:57:33.820Z,18.90
2022-08-16T05:00:30.404Z,25.80
2022-08-16T05:02:48.844Z,20.67
2022-08-16T05:05:22.547Z,23.35
2022-08-16T05:07:58.681Z,19.38
2022-08-16T05:10:27.236Z,22.23
2022-08-16T05:12:53.798Z,23.60
2022-08-16T05:15:20.402Z,19.23
2022-08-16T05:17:46.924Z,15.10
2022-08-16T05:20:38.423Z,12.60
2022-08-16T05:22:59.619Z,12.60
2022-08-16T05:25:40.723Z,11.25
2022-08-16T05:28:13.486Z,15.90
2022-08-16T05:30:40.205Z,13.90
2022-08-16T05:33:16.945Z,17.50
2022-08-16T05:35:54.647Z,20.92
2022-08-16T05:38:33.095Z,14.40
2022-08-16T05:41:05.594Z,20.63
2022-08-16T05:43:42.902Z,13.85
2022-08-16T05:46:28.860Z,18.15
2022-08-16T05:49:01.760Z,10.10
2022-08-16T05:54:05.072Z,18.88
2022-08-16T05:56:31.688Z,21.50
2022-08-16T05:59:02.377Z,19.27
2022-08-16T06:01:29.407Z,19.20
2022-08-16T06:03:59.318Z,20.98
2022-08-16T06:06:27.977Z,9.90
2022-08-16T06:08:55.572Z,22.42
2022-08-16T06:11:22.145Z,24.20
2022-08-16T06:13:51.955Z,23.90
2022-08-16T06:16:22.066Z,17.02
2022-08-16T06:18:53.612Z,27.48
2022-08-16T06:21:23.696Z,20.15
2022-08-16T06:23:54.073Z,24.85
2022-08-16T06:26:21.080Z,24.83
2022-08-16T06:28:47.473Z,23.38
2022-08-16T06:31:14.341Z,25.33
2022-08-16T06:33:42.353Z,26.35
2022-08-16T06:36:14.303Z,16.50
2022-08-16T06:38:55.691Z,10.98
2022-08-16T06:41:23.446Z,24.73
2022-08-16T06:43:53.635Z,28.63
2022-08-16T06:46:32.035Z,26.65
2022-08-16T06:48:58.781Z,32.33
2022-08-16T06:51:25.189Z,35.58
2022-08-16T06:54:14.275Z,21.15
2022-08-16T06:56:40.967Z,27.60
2022-08-16T06:59:09.144Z,19.05
2022-08-16T07:01:46.125Z,30.02
2022-08-16T07:04:33.156Z,31.10
2022-08-16T07:07:05.810Z,29.73
2022-08-16T07:09:32.521Z,28.33
2022-08-16T07:12:03.718Z,19.45
2022-08-16T07:14:30.715Z,27.55
2022-08-16T07:17:00.017Z,20.58
2022-08-16T07:20:01.311Z,36.38
2022-08-16T07:22:36.645Z,23.38
2022-08-16T07:25:01.311Z,29.63
2022-08-16T07:27:28.274Z,30.42
2022-08-16T07:29:56.289Z,34.03
2022-08-16T07:32:29.735Z,27.58
2022-08-16T07:34:58.120Z,33.92
2022-08-16T07:37:24.696Z,25.13
2022-08-16T07:39:51.549Z,35.92
2022-08-16T07:42:25.819Z,30.10
2022-08-16T07:44:55.705Z,30.95
2022-08-16T07:47:24.360Z,17.80
2022-08-16T07:49:57.852Z,15.30
2022-08-16T07:52:24.891Z,11.13
2022-08-16T07:54:56.450Z,30.95
2022-08-16T07:57:24.223Z,33.83
2022-08-16T07:59:50.774Z,24.02
2022-08-16T08:02:20.198Z,31.10
2022-08-16T08:04:47.516Z,29.40
2022-08-16T08:07:14.515Z,30.50
2022-08-16T08:09:43.538Z,31.50
2022-08-16T08:12:32.099Z,29.77
2022-08-16T08:14:57.064Z,29.90
2022-08-16T08:17:23.511Z,27.38
2022-08-16T08:19:53.254Z,27.08
2022-08-16T08:22:22.035Z,20.70
2022-08-16T08:24:48.721Z,28.42
2022-08-16T08:27:22.898Z,22.25
2022-08-16T08:30:43.889Z,25.75
2022-08-16T08:32:57.919Z,17.15
2022-08-16T08:35:26.846Z,18.08
2022-08-16T08:37:55.407Z,29.88
2022-08-16T08:40:26.705Z,31.77
2022-08-16T08:43:00.573Z,21.35
2022-08-16T08:45:46.892Z,37.00
2022-08-16T08:48:34.189Z,33.03
2022-08-16T08:51:03.437Z,19.95
2022-08-16T08:53:30.698Z,19.13
2022-08-16T08:55:58.674Z,35.72
2022-08-16T08:58:25.724Z,12.63
2022-08-16T09:01:01.561Z,21.63
2022-08-16T09:03:28.378Z,35.00
2022-08-16T09:05:59.260Z,30.92
2022-08-16T09:08:27.331Z,23.58
2022-08-16T09:10:58.879Z,19.90
2022-08-16T09:13:32.885Z,28.05
2022-08-16T09:15:59.499Z,30.00
2022-08-16T09:18:35.640Z,32.45
2022-08-16T09:21:07.086Z,24.38
2022-08-16T09:23:37.113Z,16.00
2022-08-16T09:26:44.882Z,19.30
2022-08-16T09:29:14.814Z,23.95
2022-08-16T09:31:41.092Z,28.13
2022-08-16T09:34:09.187Z,26.10
2022-08-16T09:36:37.037Z,24.27
2022-08-16T09:39:16.259Z,23.83
2022-08-16T09:41:43.615Z,24.35
2022-08-16T09:45:11.776Z,29.83
2022-08-16T09:47:10.666Z,25.48
2022-08-16T09:49:37.583Z,26.67
2022-08-16T09:52:09.488Z,26.60
2022-08-16T09:54:36.986Z,10.10
2022-08-16T09:57:03.706Z,20.75
2022-08-16T09:59:31.153Z,25.60
2022-08-16T10:02:26.974Z,14.30
2022-08-16T10:04:54.863Z,22.27
2022-08-16T10:07:21.702Z,22.35
2022-08-16T10:09:55.003Z,18.25
2022-08-16T10:12:42.562Z,23.83
2022-08-16T10:15:09.931Z,17.42
2022-08-16T10:17:42.563Z,23.85
2022-08-16T10:20:11.416Z,19.30
2022-08-16T10:22:45.085Z,16.60
2022-08-16T10:25:11.537Z,7.97
2022-08-16T10:28:27.790Z,16.58
2022-08-16T10:30:44.344Z,19.40
2022-08-16T10:33:11.748Z,28.25
2022-08-16T10:35:46.432Z,18.55
2022-08-16T10:38:27.440Z,22.50
2022-08-16T10:40:54.657Z,21.63
2022-08-16T10:43:21.129Z,25.35
2022-08-16T10:46:00.423Z,18.63
2022-08-16T10:48:28.880Z,15.55
2022-08-16T10:50:58.141Z,19.42
2022-08-16T10:53:26.323Z,21.30
2022-08-16T10:56:01.556Z,18.98
2022-08-16T10:58:34.269Z,15.55
2022-08-16T11:01:25.077Z,15.48
2022-08-16T11:03:48.151Z,19.23
2022-08-16T11:06:26.627Z,13.35
2022-08-16T11:12:07.820Z,15.77
2022-08-16T11:14:27.040Z,18.27
2022-08-16T11:17:10.497Z,14.77
2022-08-16T11:20:00.628Z,18.55
2022-08-16T11:22:42.154Z,20.13
2022-08-16T11:25:12.287Z,18.60
2022-08-16T11:27:39.359Z,17.35
2022-08-16T11:30:09.260Z,21.48
2022-08-16T11:32:39.249Z,19.42
2022-08-16T11:35:13.915Z,18.42
2022-08-16T11:40:32.721Z,10.52
2022-08-16T11:43:00.055Z,19.90
2022-08-16T11:45:26.506Z,12.65
2022-08-16T11:47:53.089Z,16.17
2022-08-16T11:50:19.534Z,15.80
2022-08-16T11:52:46.694Z,15.85
2022-08-16T11:55:13.637Z,13.27
2022-08-16T11:57:42.484Z,19.42
2022-08-16T12:00:42.662Z,16.50
2022-08-16T12:02:58.821Z,11.95
2022-08-16T12:05:27.168Z,10.38
2022-08-16T12:07:55.178Z,12.80
2022-08-16T12:10:22.788Z,11.00
2022-08-16T12:12:49.315Z,14.85
2022-08-16T12:15:19.217Z,19.10
2022-08-16T12:17:45.777Z,16.95
2022-08-16T12:20:18.750Z,13.77
2022-08-16T12:22:45.875Z,17.08
2022-08-16T12:25:15.230Z,16.35
2022-08-16T12:27:42.014Z,17.08
2022-08-16T12:30:21.241Z,18.70
2022-08-16T12:32:53.003Z,15.48
2022-08-16T12:35:21.533Z,25.20
2022-08-16T12:37:48.553Z,16.63
2022-08-16T12:40:24.987Z,10.20
2022-08-16T12:42:58.497Z,13.82
2022-08-16T12:45:26.974Z,11.55
2022-08-16T12:48:32.633Z,14.77
2022-08-16T12:50:58.129Z,16.88
2022-08-16T12:53:32.072Z,14.73
2022-08-16T12:55:58.919Z,15.95
2022-08-16T12:58:49.665Z,12.80
2022-08-16T13:01:14.203Z,13.93
2022-08-16T13:03:41.331Z,14.60
2022-08-16T13:06:07.988Z,16.20
2022-08-16T13:08:34.428Z,10.60
2022-08-16T13:11:04.540Z,13.80
2022-08-16T13:13:35.355Z,8.18
2022-08-16T13:16:06.542Z,15.55
2022-08-16T13:18:41.623Z,10.73
2022-08-16T13:21:08.867Z,16.25
2022-08-16T13:23:43.797Z,13.35
2022-08-16T13:26:10.550Z,17.58
2022-08-16T13:28:36.935Z,17.55
2022-08-16T13:31:03.486Z,13.45
2022-08-16T13:33:31.646Z,14.02
2022-08-16T13:35:59.258Z,6.40
2022-08-16T13:38:29.047Z,15.35
2022-08-16T13:40:59.667Z,11.40
2022-08-16T13:43:27.103Z,10.20
2022-08-16T13:45:55.652Z,17.33
2022-08-16T13:48:25.207Z,15.73
2022-08-16T13:50:54.635Z,17.98
2022-08-16T13:53:24.339Z,17.08
2022-08-16T13:55:58.597Z,12.35
2022-08-16T13:58:34.920Z,17.90
2022-08-16T14:01:04.086Z,22.08
2022-08-16T14:03:36.496Z,16.63
2022-08-16T14:06:03.880Z,14.55
2022-08-16T14:08:30.377Z,15.73
2022-08-16T14:10:56.781Z,18.13
2022-08-16T14:13:23.246Z,12.68
2022-08-16T14:15:49.649Z,14.07
2022-08-16T14:18:19.883Z,11.82
2022-08-16T14:20:48.703Z,9.80
2022-08-16T14:23:21.785Z,11.82
2022-08-16T14:25:54.361Z,17.27
2022-08-16T14:28:25.904Z,17.23
2022-08-16T14:30:52.892Z,17.92
2022-08-16T14:33:19.719Z,15.27
2022-08-16T14:35:50.443Z,14.70
2022-08-16T14:38:19.110Z,19.25
2022-08-16T14:40:55.544Z,12.45
2022-08-16T14:43:22.480Z,16.00
2022-08-16T14:45:50.336Z,18.58
2022-08-16T14:48:21.434Z,15.57
2022-08-16T14:50:51.922Z,16.90
2022-08-16T14:53:18.483Z,9.95
2022-08-16T14:55:46.124Z,9.50
2022-08-16T14:58:19.317Z,16.20
2022-08-16T15:00:46.907Z,15.15
2022-08-16T15:03:13.488Z,12.05
2022-08-16T15:05:41.654Z,14.90
2022-08-16T15:08:08.518Z,12.55
2022-08-16T15:10:34.940Z,9.25
2022-08-16T15:13:09.419Z,10.57
2022-08-16T15:15:37.335Z,8.18
2022-08-16T15:18:04.533Z,16.60
2022-08-16T15:20:33.037Z,15.73
2022-08-16T15:23:00.801Z,14.40
2022-08-16T15:25:33.344Z,11.02
2022-08-16T15:28:02.481Z,11.52
2022-08-16T15:30:58.450Z,10.23
2022-08-16T15:33:19.903Z,7.10
2022-08-16T15:35:47.512Z,12.23
2022-08-16T15:38:31.676Z,7.47
2022-08-16T15:41:01.986Z,8.55
2022-08-16T15:43:39.219Z,8.20
2022-08-16T15:46:35.165Z,7.88
2022-08-16T15:49:09.543Z,6.05
2022-08-16T15:51:36.888Z,7.85
2022-08-16T15:54:21.284Z,11.05
2022-08-16T15:56:54.981Z,5.75
2022-08-16T15:59:23.564Z,10.20
2022-08-16T16:01:51.355Z,6.07
2022-08-16T16:04:22.344Z,6.18
2022-08-16T16:06:54.878Z,10.18
2022-08-16T16:09:36.563Z,8.05
2022-08-16T16:12:16.384Z,7.15
2022-08-16T16:14:50.689Z,15.27
2022-08-16T16:17:17.457Z,7.70
2022-08-16T16:19:43.988Z,14.93
2022-08-16T16:22:10.740Z,9.27
2022-08-16T16:24:39.827Z,7.85
2022-08-16T16:27:06.530Z,9.20
2022-08-16T16:29:37.237Z,8.88
2022-08-16T16:32:07.703Z,10.50
2022-08-16T16:34:35.403Z,6.90
2022-08-16T16:37:02.603Z,8.77
2022-08-16T16:39:32.450Z,10.60
2022-08-16T16:41:59.781Z,8.88
2022-08-16T16:44:33.493Z,10.15
2022-08-16T16:47:00.358Z,7.13
2022-08-16T16:49:26.827Z,4.75
2022-08-16T16:51:55.099Z,8.43
2022-08-16T16:54:33.478Z,8.07
2022-08-16T16:57:00.849Z,8.43
2022-08-16T16:59:28.046Z,9.45
2022-08-16T17:01:59.632Z,10.38
2022-08-16T17:04:41.787Z,6.68
2022-08-16T17:07:11.143Z,11.77
2022-08-16T17:09:40.244Z,8.48
2022-08-16T17:12:07.814Z,10.23
2022-08-16T17:14:35.437Z,9.20
2022-08-16T17:17:07.083Z,12.05
2022-08-16T17:19:41.153Z,8.80
2022-08-16T17:22:14.576Z,9.88
2022-08-16T17:24:44.825Z,7.75
2022-08-16T17:27:11.596Z,4.82
2022-08-16T17:29:46.475Z,7.88
2022-08-16T17:32:33.781Z,7.45
2022-08-16T17:35:03.014Z,8.77
2022-08-16T17:37:48.914Z,5.00
2022-08-16T17:40:40.997Z,9.93
2022-08-16T17:43:05.512Z,11.27
2022-08-16T17:45:33.077Z,14.40
2022-08-16T17:47:59.705Z,10.45
2022-08-16T17:50:28.404Z,12.38
2022-08-16T17:52:55.948Z,18.33
2022-08-16T17:55:24.161Z,13.02
2022-08-16T17:57:50.929Z,15.57
2022-08-16T18:00:20.370Z,15.70
2022-08-16T18:02:50.178Z,19.20
2022-08-16T18:05:17.290Z,16.20
2022-08-16T18:07:43.967Z,12.52
2022-08-16T18:10:10.923Z,18.00
2022-08-16T18:12:50.703Z,9.40
2022-08-16T18:15:23.339Z,15.98
2022-08-16T18:17:51.959Z,21.58
2022-08-16T18:20:37.628Z,18.40
2022-08-16T18:23:13.863Z,14.68
2022-08-16T18:25:43.067Z,14.60
2022-08-16T18:28:09.529Z,16.17
2022-08-16T18:30:36.031Z,13.68
2022-08-16T18:33:02.521Z,11.85
2022-08-16T18:35:28.933Z,20.80
2022-08-16T18:37:55.881Z,11.95
2022-08-16T18:40:22.560Z,17.52
2022-08-16T18:42:59.535Z,11.55
2022-08-16T18:45:35.390Z,12.43
2022-08-16T18:48:03.977Z,14.27
2022-08-16T18:51:00.009Z,17.23
2022-08-16T18:53:18.112Z,14.43
2022-08-16T18:55:45.636Z,21.77
2022-08-16T18:58:15.413Z,15.73
2022-08-16T19:00:45.726Z,16.77
2022-08-16T19:03:24.217Z,22.25
2022-08-16T19:05:54.581Z,20.42
2022-08-16T19:08:20.959Z,25.13
2022-08-16T19:10:48.417Z,18.30
2022-08-16T19:13:19.965Z,29.33
2022-08-16T19:15:47.534Z,24.92
2022-08-16T19:18:13.956Z,24.95
2022-08-16T19:20:40.773Z,24.02
2022-08-16T19:23:11.202Z,24.88
2022-08-16T19:25:46.955Z,20.17
2022-08-16T19:28:48.975Z,18.70
2022-08-16T19:31:06.268Z,26.45
2022-08-16T19:33:32.655Z,18.48
2022-08-16T19:35:59.495Z,24.25
2022-08-16T19:38:26.151Z,24.52
2022-08-16T19:40:52.699Z,30.25
2022-08-16T19:43:21.825Z,30.73
2022-08-16T19:45:48.980Z,22.67
2022-08-16T19:48:15.472Z,15.20
2022-08-16T19:50:41.819Z,30.02
2022-08-16T19:53:18.436Z,24.52
2022-08-16T19:55:47.379Z,24.17
2022-08-16T19:58:14.059Z,33.33
2022-08-16T20:00:43.031Z,25.10
2022-08-16T20:03:11.062Z,29.58
2022-08-16T20:05:37.460Z,23.63
2022-08-16T20:08:04.577Z,15.27
2022-08-16T20:10:31.236Z,28.70
2022-08-16T20:13:01.640Z,21.95
2022-08-16T20:15:29.680Z,21.17
2022-08-16T20:17:57.042Z,30.48
2022-08-16T20:20:26.069Z,27.58
2022-08-16T20:22:54.274Z,16.27
2022-08-16T20:25:41.437Z,28.67
2022-08-16T20:28:08.075Z,24.67
2022-08-16T20:30:34.984Z,33.50
2022-08-16T20:33:01.412Z,32.22
2022-08-16T20:35:28.467Z,22.70
2022-08-16T20:37:55.928Z,24.30
2022-08-16T20:40:33.698Z,29.17
2022-08-16T20:43:04.918Z,22.25
2022-08-16T20:45:31.467Z,27.67
2022-08-16T20:47:57.848Z,30.05
2022-08-16T20:50:24.720Z,21.33
2022-08-16T20:52:51.770Z,37.72
2022-08-16T20:55:18.627Z,37.65
2022-08-16T20:57:44.993Z,28.35
2022-08-16T21:00:12.060Z,30.05
2022-08-16T21:02:40.552Z,21.70
2022-08-16T21:05:07.915Z,25.70
2022-08-16T21:07:35.569Z,21.38
2022-08-16T21:10:01.977Z,35.92
2022-08-16T21:12:28.377Z,39.38
2022-08-16T21:15:05.379Z,32.50
2022-08-16T21:17:31.837Z,30.88
2022-08-16T21:19:58.240Z,20.33
2022-08-16T21:22:24.618Z,35.83
2022-08-16T21:24:53.891Z,32.75
2022-08-16T21:27:20.725Z,42.85
2022-08-16T21:29:48.805Z,39.78
2022-08-16T21:32:18.215Z,30.42
2022-08-16T21:34:44.941Z,22.77
2022-08-16T21:37:11.688Z,23.80
2022-08-16T21:39:41.999Z,35.55
2022-08-16T21:42:12.513Z,20.67
2022-08-16T21:44:39.295Z,29.52
2022-08-16T21:47:05.897Z,43.65
2022-08-16T21:49:34.726Z,36.35
2022-08-16T21:52:01.161Z,40.85
2022-08-16T21:54:27.492Z,46.20
2022-08-16T21:56:53.826Z,35.58
2022-08-16T21:59:20.264Z,32.03
2022-08-16T22:01:46.690Z,35.53
2022-08-16T22:04:36.512Z,16.85
2022-08-16T22:07:00.526Z,30.00
2022-08-16T22:09:26.924Z,19.15
2022-08-16T22:11:53.306Z,20.85
2022-08-16T22:14:19.711Z,23.65
2022-08-16T22:16:47.112Z,33.22
2022-08-16T22:19:13.592Z,25.13
2022-08-16T22:21:40.301Z,26.40
2022-08-16T22:24:06.988Z,35.35
2022-08-16T22:26:38.582Z,28.77
2022-08-16T22:29:10.243Z,37.50
2022-08-16T22:31:37.779Z,37.17
2022-08-16T22:34:04.589Z,35.53
2022-08-16T22:36:32.809Z,35.78
2022-08-16T22:39:00.697Z,37.58
2022-08-16T22:41:28.236Z,36.70
2022-08-16T22:43:54.814Z,38.53
2022-08-16T22:46:21.138Z,40.58
2022-08-16T22:48:50.483Z,36.97
2022-08-16T22:51:18.255Z,38.45
2022-08-16T22:53:44.985Z,39.15
2022-08-16T22:56:11.359Z,37.83
2022-08-16T22:58:37.715Z,29.25
2022-08-16T23:01:06.217Z,29.30
2022-08-16T23:03:32.779Z,31.42
2022-08-16T23:06:02.366Z,36.38
2022-08-16T23:08:38.632Z,29.45
2022-08-16T23:11:06.811Z,23.95
2022-08-16T23:13:33.169Z,18.05
2022-08-16T23:16:02.179Z,28.88
2022-08-16T23:18:29.481Z,42.10
2022-08-16T23:20:56.878Z,44.33
2022-08-16T23:23:25.634Z,40.63
2022-08-16T23:25:55.040Z,37.42
2022-08-16T23:28:23.159Z,34.28
2022-08-16T23:30:50.261Z,47.83
2022-08-16T23:33:17.298Z,51.67
2022-08-16T23:35:45.998Z,49.33
2022-08-16T23:38:38.399Z,32.03
2022-08-16T23:41:00.538Z,30.88
2022-08-16T23:43:28.491Z,34.08
2022-08-16T23:45:56.597Z,30.13
2022-08-16T23:48:25.809Z,51.58
2022-08-16T23:50:53.055Z,48.20
2022-08-16T23:53:21.065Z,41.70
2022-08-16T23:55:48.739Z,41.85
2022-08-16T23:58:15.936Z,49.97
